Time;durP1;ratioP1;P1;durP2;ratioP2;P2;SDS_P1;SDS_P2;PMS_P1;PMS_P2;Temp;Humidity;BMP_temperature;BMP_pressure;BME280_temperature;BME280_humidity;BME280_pressure;Samples;Min_cycle;Max_cycle;Signal;HPM_P1;HPM_P2
2021/09/10 00:00:47;;;;;;;12.47;11.37;;;18.70;1.00;;;;;;5026931;28;20522;-79
2021/09/10 00:03:13;;;;;;;13.50;12.03;;;18.70;1.00;;;;;;5009892;28;20545;-79
2021/09/10 00:05:41;;;;;;;13.70;12.40;;;18.70;1.00;;;;;;5026633;28;20468;-79
2021/09/10 00:08:08;;;;;;;13.10;11.97;;;18.70;1.00;;;;;;5026810;28;20461;-78
2021/09/10 00:10:35;;;;;;;13.40;12.30;;;18.60;1.00;;;;;;5026720;28;20456;-79
2021/09/10 00:13:02;;;;;;;12.63;11.50;;;18.60;1.00;;;;;;5037567;28;20520;-79
2021/09/10 00:15:29;;;;;;;13.00;11.90;;;18.60;1.00;;;;;;5043234;28;20460;-79
2021/09/10 00:17:56;;;;;;;13.03;11.83;;;18.60;1.00;;;;;;5044578;28;20446;-80
2021/09/10 00:20:23;;;;;;;12.70;11.60;;;18.50;1.00;;;;;;5044912;28;20480;-79
2021/09/10 00:22:50;;;;;;;13.90;12.70;;;18.50;1.00;;;;;;5044507;28;20432;-79
2021/09/10 00:25:17;;;;;;;13.50;12.40;;;18.40;1.00;;;;;;5043177;28;20480;-79
2021/09/10 00:27:44;;;;;;;13.57;12.43;;;18.40;1.00;;;;;;5042270;28;20452;-79
2021/09/10 00:30:12;;;;;;;14.10;12.70;;;18.40;1.00;;;;;;5045669;28;20784;-78
2021/09/10 00:32:39;;;;;;;13.30;11.90;;;18.40;1.00;;;;;;5024077;28;20538;-78
2021/09/10 00:35:06;;;;;;;12.77;11.67;;;18.40;1.00;;;;;;5024714;28;20524;-79
2021/09/10 00:37:33;;;;;;;14.30;13.00;;;18.50;1.00;;;;;;5026456;28;20413;-79
2021/09/10 00:40:01;;;;;;;12.90;11.80;;;18.40;1.00;;;;;;5027072;28;20544;-79
2021/09/10 00:42:27;;;;;;;12.80;11.80;;;18.40;1.00;;;;;;5027377;28;20544;-79
2021/09/10 00:44:54;;;;;;;14.40;13.00;;;18.40;1.00;;;;;;5033476;28;21550;-79
2021/09/10 00:47:21;;;;;;;13.93;12.60;;;18.30;1.00;;;;;;5034404;28;20457;-78
2021/09/10 00:49:48;;;;;;;13.67;12.53;;;18.30;1.00;;;;;;5030855;28;20485;-79
2021/09/10 00:52:14;;;;;;;14.23;12.93;;;18.30;1.00;;;;;;5035853;28;20435;-78
2021/09/10 00:54:41;;;;;;;14.57;13.30;;;18.20;1.00;;;;;;5029703;28;20412;-79
2021/09/10 00:57:10;;;;;;;13.83;12.63;;;18.10;1.00;;;;;;5026539;28;20897;-79
2021/09/10 00:59:36;;;;;;;14.00;12.90;;;18.20;1.00;;;;;;5021288;28;20499;-78
2021/09/10 01:02:04;;;;;;;14.30;13.00;;;18.20;1.00;;;;;;5025161;28;20489;-79
2021/09/10 01:04:31;;;;;;;15.00;13.70;;;18.10;1.00;;;;;;5031470;28;20594;-79
2021/09/10 01:06:59;;;;;;;15.07;13.47;;;18.10;1.00;;;;;;5035096;28;20465;-80
2021/09/10 01:09:27;;;;;;;14.87;13.53;;;18.10;1.00;;;;;;5026003;28;20461;-80
2021/09/10 01:11:54;;;;;;;15.30;14.00;;;18.10;1.00;;;;;;5031226;28;20784;-80
2021/09/10 01:14:23;;;;;;;15.17;13.80;;;18.00;1.00;;;;;;5023498;28;20461;-79
2021/09/10 01:16:50;;;;;;;14.80;13.50;;;18.00;1.00;;;;;;5031395;28;20531;-79
2021/09/10 01:19:22;;;;;;;15.40;14.03;;;17.90;1.00;;;;;;5031868;28;22152;-78
2021/09/10 01:21:52;;;;;;;14.63;13.20;;;17.80;1.00;;;;;;5027357;28;20437;-79
2021/09/10 01:24:21;;;;;;;15.50;14.10;;;17.80;1.00;;;;;;5009189;28;20569;-80
2021/09/10 01:26:49;;;;;;;16.73;15.03;;;17.70;1.00;;;;;;5031300;28;20434;-79
2021/09/10 01:29:15;;;;;;;14.67;13.37;;;17.60;1.00;;;;;;5030236;28;20470;-80
2021/09/10 01:31:42;;;;;;;16.10;14.60;;;17.60;1.00;;;;;;5032945;28;20764;-80
2021/09/10 01:34:09;;;;;;;15.87;14.53;;;17.60;1.00;;;;;;5016600;28;21533;-80
2021/09/10 01:36:36;;;;;;;14.83;13.53;;;17.50;1.00;;;;;;5031235;28;20504;-79
2021/09/10 01:39:03;;;;;;;15.53;13.93;;;17.50;1.00;;;;;;5029824;28;20466;-81
2021/09/10 01:41:30;;;;;;;15.50;14.10;;;17.40;1.00;;;;;;5033687;28;20496;-79
2021/09/10 01:43:57;;;;;;;16.17;14.77;;;17.40;1.00;;;;;;5023616;28;20567;-79
2021/09/10 01:46:24;;;;;;;17.77;15.90;;;17.40;1.00;;;;;;5025275;28;20468;-79
2021/09/10 01:48:51;;;;;;;16.93;15.20;;;17.40;1.00;;;;;;5033511;28;21341;-80
2021/09/10 01:51:18;;;;;;;16.50;14.90;;;17.40;1.00;;;;;;5029993;28;20559;-80
2021/09/10 01:53:44;;;;;;;16.10;14.37;;;17.40;1.00;;;;;;5028668;28;20479;-79
2021/09/10 01:56:11;;;;;;;16.00;14.30;;;17.40;1.00;;;;;;5032794;28;20455;-79
2021/09/10 01:58:38;;;;;;;17.80;16.27;;;17.30;1.00;;;;;;5026111;28;20892;-81
2021/09/10 02:01:06;;;;;;;15.67;14.30;;;17.40;1.00;;;;;;5027649;28;20439;-80
2021/09/10 02:03:33;;;;;;;16.60;15.20;;;17.40;1.00;;;;;;5028898;28;20476;-81
2021/09/10 02:05:59;;;;;;;14.70;13.47;;;17.40;1.00;;;;;;5025551;28;20547;-80
2021/09/10 02:08:26;;;;;;;16.23;14.93;;;17.40;1.00;;;;;;5028308;28;20487;-79
2021/09/10 02:10:55;;;;;;;16.60;15.10;;;17.40;1.00;;;;;;5034707;28;20446;-80
2021/09/10 02:13:22;;;;;;;16.33;14.83;;;17.40;1.00;;;;;;5028603;28;20417;-80
2021/09/10 02:15:49;;;;;;;16.43;14.93;;;17.30;1.00;;;;;;5032545;28;21359;-79
2021/09/10 02:18:17;;;;;;;16.70;15.20;;;17.30;1.00;;;;;;5030193;28;20472;-80
2021/09/10 02:20:43;;;;;;;16.23;14.77;;;17.30;1.00;;;;;;5028322;28;20468;-80
2021/09/10 02:23:10;;;;;;;17.93;16.13;;;17.20;1.00;;;;;;5030132;28;20558;-81
2021/09/10 02:25:37;;;;;;;15.50;14.23;;;17.20;1.00;;;;;;5035078;28;20904;-80
2021/09/10 02:28:03;;;;;;;16.67;15.00;;;17.20;1.00;;;;;;5035309;28;20473;-80
2021/09/10 02:30:30;;;;;;;16.83;15.33;;;17.10;1.00;;;;;;5033370;28;20567;-80
2021/09/10 02:32:57;;;;;;;17.00;15.50;;;17.10;1.00;;;;;;5039102;28;21638;-79
2021/09/10 02:35:27;;;;;;;17.03;15.63;;;17.00;1.00;;;;;;5035103;28;20459;-80
2021/09/10 02:37:54;;;;;;;17.70;16.00;;;17.00;1.00;;;;;;5034999;28;20561;-79
2021/09/10 02:40:21;;;;;;;17.10;15.33;;;17.10;1.00;;;;;;5029438;28;20448;-80
2021/09/10 02:42:48;;;;;;;17.57;15.93;;;17.10;1.00;;;;;;5034875;28;20426;-79
2021/09/10 02:45:15;;;;;;;18.07;16.53;;;17.00;1.00;;;;;;5034965;28;20482;-80
2021/09/10 02:47:41;;;;;;;18.40;16.57;;;17.00;1.00;;;;;;5034662;28;20455;-79
2021/09/10 02:50:09;;;;;;;17.43;15.93;;;16.90;1.00;;;;;;5036379;28;20443;-80
2021/09/10 02:52:37;;;;;;;17.60;16.00;;;16.90;1.00;;;;;;5039527;28;21281;-80
2021/09/10 02:55:07;;;;;;;17.53;15.93;;;16.90;1.00;;;;;;5040501;28;20455;-80
2021/09/10 02:57:34;;;;;;;17.83;16.33;;;16.90;1.00;;;;;;5041951;28;20555;-80
2021/09/10 03:00:01;;;;;;;17.07;15.63;;;16.90;1.00;;;;;;5037625;28;20483;-80
2021/09/10 03:02:27;;;;;;;17.67;16.07;;;16.90;1.00;;;;;;5037686;28;20549;-79
2021/09/10 03:04:54;;;;;;;24.17;22.07;;;16.90;1.00;;;;;;5033946;28;20583;-79
2021/09/10 03:07:21;;;;;;;18.10;16.40;;;16.90;1.00;;;;;;5036040;28;20442;-78
2021/09/10 03:09:49;;;;;;;17.57;15.90;;;16.80;1.00;;;;;;5041452;28;20515;-79
2021/09/10 03:12:16;;;;;;;16.93;15.53;;;16.80;1.00;;;;;;5036740;28;22496;-78
2021/09/10 03:14:43;;;;;;;20.43;18.63;;;16.80;1.00;;;;;;5036328;28;20451;-80
2021/09/10 03:17:09;;;;;;;18.03;16.30;;;16.80;1.00;;;;;;5036833;28;20472;-79
2021/09/10 03:19:36;;;;;;;18.33;16.57;;;16.80;1.00;;;;;;5039064;28;20475;-80
2021/09/10 03:22:03;;;;;;;17.37;15.90;;;16.70;1.00;;;;;;5033538;28;20590;-81
2021/09/10 03:24:30;;;;;;;17.67;16.17;;;16.70;1.00;;;;;;5017309;28;20578;-82
2021/09/10 03:26:58;;;;;;;19.60;17.50;;;16.70;1.00;;;;;;5020203;28;20475;-81
2021/09/10 03:29:25;;;;;;;22.93;18.00;;;16.70;1.00;;;;;;5018103;28;20541;-80
2021/09/10 03:31:51;;;;;;;20.30;18.50;;;16.80;1.00;;;;;;5025799;28;20443;-82
2021/09/10 03:34:18;;;;;;;22.43;20.43;;;16.80;1.00;;;;;;5031847;28;20499;-79
2021/09/10 03:36:45;;;;;;;18.40;16.77;;;16.80;1.00;;;;;;5032611;28;20515;-81
2021/09/10 03:39:11;;;;;;;19.00;17.17;;;16.70;1.00;;;;;;5018763;28;22130;-81
2021/09/10 03:41:38;;;;;;;18.47;16.77;;;16.70;1.00;;;;;;5023171;28;20475;-82
2021/09/10 03:44:06;;;;;;;19.10;17.30;;;16.60;1.00;;;;;;5027656;28;20454;-80
2021/09/10 03:46:33;;;;;;;18.90;17.20;;;16.50;1.00;;;;;;5029496;28;20476;-80
2021/09/10 03:48:59;;;;;;;20.00;18.13;;;16.50;1.00;;;;;;5025618;28;20432;-81
2021/09/10 03:51:26;;;;;;;19.70;17.50;;;16.50;1.00;;;;;;5027122;28;20476;-81
2021/09/10 03:53:53;;;;;;;19.67;17.90;;;16.60;1.00;;;;;;5024599;28;20488;-80
2021/09/10 03:56:20;;;;;;;18.70;16.93;;;16.60;1.00;;;;;;5029155;28;20929;-80
2021/09/10 03:58:46;;;;;;;21.73;19.83;;;16.50;1.00;;;;;;5030075;28;20714;-79
2021/09/10 04:01:14;;;;;;;19.00;17.20;;;16.60;1.00;;;;;;5026941;28;20481;-81
2021/09/10 04:03:41;;;;;;;20.03;18.10;;;16.60;1.00;;;;;;5013089;28;20961;-78
2021/09/10 04:06:09;;;;;;;19.87;17.97;;;16.60;1.00;;;;;;5023497;28;22016;-81
2021/09/10 04:08:36;;;;;;;19.17;17.37;;;16.60;1.00;;;;;;5026656;28;20460;-80
2021/09/10 04:11:03;;;;;;;19.50;17.60;;;16.60;1.00;;;;;;5026941;28;20517;-80
2021/09/10 04:13:30;;;;;;;18.67;16.87;;;16.60;1.00;;;;;;5027894;28;20555;-82
2021/09/10 04:15:56;;;;;;;20.20;18.37;;;16.60;1.00;;;;;;5017828;28;20548;-81
2021/09/10 04:18:24;;;;;;;20.33;18.40;;;16.70;1.00;;;;;;5018679;28;20595;-81
2021/09/10 04:20:51;;;;;;;21.13;19.13;;;16.70;1.00;;;;;;5015915;28;20474;-78
2021/09/10 04:23:18;;;;;;;19.00;17.20;;;16.60;1.00;;;;;;5017851;28;20453;-77
2021/09/10 04:25:45;;;;;;;19.47;17.67;;;16.70;1.00;;;;;;5014014;28;20466;-77
2021/09/10 04:28:12;;;;;;;24.63;20.30;;;16.60;1.00;;;;;;5017712;28;20542;-79
2021/09/10 04:30:39;;;;;;;19.23;17.30;;;16.70;1.00;;;;;;5019479;28;20500;-77
2021/09/10 04:33:06;;;;;;;19.17;17.27;;;16.70;1.00;;;;;;5009230;28;20892;-79
2021/09/10 04:35:34;;;;;;;21.13;19.10;;;16.80;1.00;;;;;;5025630;28;20444;-80
2021/09/10 04:38:00;;;;;;;20.63;18.10;;;16.70;1.00;;;;;;5014883;28;21560;-79
2021/09/10 04:40:27;;;;;;;20.40;17.63;;;16.70;1.00;;;;;;5020845;28;20461;-81
2021/09/10 04:42:53;;;;;;;20.83;18.90;;;16.70;1.00;;;;;;5016018;28;20495;-80
2021/09/10 04:45:22;;;;;;;22.60;18.00;;;16.70;1.00;;;;;;5018839;28;20452;-80
2021/09/10 04:47:49;;;;;;;21.97;19.77;;;16.70;1.00;;;;;;5021959;28;20435;-81
2021/09/10 04:50:15;;;;;;;40.13;23.50;;;16.80;1.00;;;;;;5024907;28;20563;-78
2021/09/10 04:52:43;;;;;;;22.43;20.10;;;16.80;1.00;;;;;;5017288;28;20471;-77
2021/09/10 04:55:11;;;;;;;21.63;19.33;;;16.80;1.00;;;;;;5019797;28;22708;-78
2021/09/10 04:57:39;;;;;;;21.70;18.90;;;16.70;1.00;;;;;;5023491;28;20518;-78
2021/09/10 05:00:07;;;;;;;20.37;18.43;;;16.80;1.00;;;;;;5028046;28;20482;-78
2021/09/10 05:02:34;;;;;;;23.07;19.07;;;16.80;1.00;;;;;;5022624;28;20451;-78
2021/09/10 05:05:01;;;;;;;21.03;19.07;;;16.80;1.00;;;;;;5025153;28;20518;-79
2021/09/10 05:07:27;;;;;;;23.90;20.30;;;16.80;1.00;;;;;;5026031;28;20458;-80
2021/09/10 05:09:55;;;;;;;21.03;18.87;;;16.80;1.00;;;;;;5015143;28;20533;-78
2021/09/10 05:12:22;;;;;;;21.87;19.80;;;16.90;1.00;;;;;;5017625;28;20536;-77
2021/09/10 05:14:51;;;;;;;20.90;18.97;;;16.90;1.00;;;;;;5012637;28;20466;-77
2021/09/10 05:17:19;;;;;;;19.50;17.70;;;17.00;1.00;;;;;;5016778;28;20475;-78
2021/09/10 05:19:45;;;;;;;19.63;17.93;;;17.00;1.00;;;;;;5017369;28;20448;-77
2021/09/10 05:22:12;;;;;;;22.70;20.30;;;17.10;1.00;;;;;;5013059;28;20542;-77
2021/09/10 05:24:39;;;;;;;22.83;20.80;;;17.10;1.00;;;;;;4998788;28;21014;-76
2021/09/10 05:27:07;;;;;;;20.53;18.53;;;17.10;1.00;;;;;;5012180;28;20465;-78
2021/09/10 05:29:34;;;;;;;24.03;21.73;;;17.10;1.00;;;;;;5017160;28;20471;-77
2021/09/10 05:32:01;;;;;;;22.90;20.50;;;17.10;1.00;;;;;;5015925;28;21690;-81
2021/09/10 05:34:27;;;;;;;21.57;19.60;;;17.10;1.00;;;;;;5012764;28;20424;-79
2021/09/10 05:36:54;;;;;;;23.13;20.80;;;17.10;1.00;;;;;;5022374;28;21292;-82
2021/09/10 05:39:21;;;;;;;23.50;21.17;;;17.10;1.00;;;;;;5019245;28;21400;-79
2021/09/10 05:41:48;;;;;;;22.17;19.97;;;17.20;1.00;;;;;;5022734;28;20497;-79
2021/09/10 05:44:16;;;;;;;23.73;21.60;;;17.20;1.00;;;;;;5017978;28;21023;-80
2021/09/10 05:46:44;;;;;;;22.70;20.50;;;17.30;1.00;;;;;;5015612;28;20472;-80
2021/09/10 05:49:11;;;;;;;22.50;20.50;;;17.30;1.00;;;;;;5014266;28;20538;-80
2021/09/10 05:51:38;;;;;;;22.23;20.00;;;17.40;1.00;;;;;;5001280;28;20461;-80
2021/09/10 05:54:05;;;;;;;22.90;20.30;;;17.60;1.00;;;;;;5017337;28;20586;-81
2021/09/10 05:56:31;;;;;;;22.57;20.37;;;17.60;1.00;;;;;;5015932;28;20484;-80
2021/09/10 05:58:59;;;;;;;22.43;20.23;;;17.70;1.00;;;;;;5019722;28;20525;-80
2021/09/10 06:01:27;;;;;;;22.27;20.37;;;17.70;1.00;;;;;;5021988;28;20503;-79
2021/09/10 06:03:54;;;;;;;24.50;22.23;;;17.80;1.00;;;;;;5020402;28;20549;-80
2021/09/10 06:06:21;;;;;;;21.90;19.80;;;17.90;1.00;;;;;;5016581;28;20647;-82
2021/09/10 06:08:47;;;;;;;21.20;19.20;;;18.00;1.00;;;;;;5015378;28;20585;-80
2021/09/10 06:11:14;;;;;;;21.60;19.70;;;18.00;1.00;;;;;;5017463;28;20465;-80
2021/09/10 06:13:41;;;;;;;22.50;20.40;;;18.20;1.00;;;;;;5029106;28;20481;-79
2021/09/10 06:16:08;;;;;;;22.00;19.73;;;18.20;1.00;;;;;;5023299;28;20440;-80
2021/09/10 06:18:36;;;;;;;21.17;19.23;;;18.20;1.00;;;;;;5016471;28;20431;-80
2021/09/10 06:21:03;;;;;;;22.03;19.93;;;18.30;1.00;;;;;;5017725;28;20511;-79
2021/09/10 06:23:30;;;;;;;22.43;20.07;;;18.30;1.00;;;;;;5020718;28;20456;-80
2021/09/10 06:25:56;;;;;;;21.23;19.23;;;18.40;1.00;;;;;;5018487;28;20551;-79
2021/09/10 06:28:23;;;;;;;21.00;19.13;;;18.50;1.00;;;;;;5019753;28;20552;-79
2021/09/10 06:30:50;;;;;;;23.27;19.47;;;18.50;1.00;;;;;;5015979;28;20464;-78
2021/09/10 06:33:17;;;;;;;21.63;19.60;;;18.60;1.00;;;;;;5019542;28;20460;-79
2021/09/10 06:35:45;;;;;;;22.57;20.50;;;18.60;1.00;;;;;;5019947;28;20468;-79
2021/09/10 06:38:11;;;;;;;23.17;20.97;;;18.70;1.00;;;;;;5025274;28;20457;-79
2021/09/10 06:40:38;;;;;;;22.37;20.33;;;18.80;1.00;;;;;;5021942;28;20628;-81
2021/09/10 06:43:05;;;;;;;23.13;20.70;;;19.00;1.00;;;;;;5018912;28;20456;-80
2021/09/10 06:45:31;;;;;;;23.87;21.57;;;19.00;1.00;;;;;;5023889;28;20524;-81
2021/09/10 06:47:59;;;;;;;21.77;19.93;;;19.10;1.00;;;;;;5022481;28;21416;-80
2021/09/10 06:50:25;;;;;;;22.03;19.73;;;19.20;1.00;;;;;;5022394;28;20828;-80
2021/09/10 06:52:53;;;;;;;22.00;19.90;;;19.30;1.00;;;;;;5017934;28;21549;-80
2021/09/10 06:55:20;;;;;;;26.70;22.10;;;19.50;1.00;;;;;;5023678;28;21240;-80
2021/09/10 06:57:47;;;;;;;24.93;22.37;;;19.50;1.00;;;;;;5026404;28;21104;-79
2021/09/10 07:00:15;;;;;;;23.77;21.13;;;19.70;1.00;;;;;;5025904;28;20460;-80
2021/09/10 07:02:42;;;;;;;24.20;21.73;;;19.80;1.00;;;;;;5029072;28;20516;-80
2021/09/10 07:05:09;;;;;;;22.20;20.20;;;19.90;1.00;;;;;;5029529;28;21792;-80
2021/09/10 07:07:36;;;;;;;23.90;21.70;;;20.00;1.00;;;;;;5032123;28;20425;-80
2021/09/10 07:10:05;;;;;;;22.50;20.20;;;20.10;1.00;;;;;;5032579;28;21394;-81
2021/09/10 07:12:32;;;;;;;24.87;22.40;;;20.20;1.00;;;;;;5030967;28;20446;-80
2021/09/10 07:14:58;;;;;;;23.50;21.20;;;20.40;1.00;;;;;;5037303;28;20805;-78
2021/09/10 07:17:25;;;;;;;22.73;20.50;;;20.50;1.00;;;;;;5026700;28;20470;-80
2021/09/10 07:19:52;;;;;;;22.60;20.20;;;20.60;1.00;;;;;;5023737;28;20422;-81
2021/09/10 07:22:18;;;;;;;22.13;20.10;;;20.70;1.00;;;;;;5017725;28;20533;-80
2021/09/10 07:24:45;;;;;;;23.57;20.30;;;20.90;1.00;;;;;;5014866;28;20453;-80
2021/09/10 07:27:13;;;;;;;25.33;21.80;;;21.00;1.00;;;;;;5032637;28;20460;-81
2021/09/10 07:29:40;;;;;;;24.47;21.97;;;21.10;1.00;;;;;;5030188;28;20473;-80
2021/09/10 07:32:07;;;;;;;23.37;21.43;;;21.30;1.00;;;;;;5021252;28;20491;-80
2021/09/10 07:34:34;;;;;;;22.53;20.47;;;21.40;1.00;;;;;;5021283;28;20446;-81
2021/09/10 07:37:00;;;;;;;24.93;22.50;;;21.50;1.00;;;;;;5016290;28;20491;-81
2021/09/10 07:39:27;;;;;;;27.50;24.90;;;21.70;1.00;;;;;;5016834;28;20564;-79
2021/09/10 07:41:54;;;;;;;22.23;19.70;;;21.80;1.00;;;;;;5016826;28;20623;-80
2021/09/10 07:44:22;;;;;;;21.80;19.70;;;21.90;1.00;;;;;;5016683;28;20439;-79
2021/09/10 07:46:51;;;;;;;21.10;19.00;;;22.00;1.00;;;;;;5016872;28;20545;-80
2021/09/10 07:49:18;;;;;;;21.23;19.03;;;22.10;1.00;;;;;;5024354;28;20462;-81
2021/09/10 07:51:45;;;;;;;20.97;18.90;;;22.20;1.00;;;;;;5013636;28;20836;-80
2021/09/10 07:54:12;;;;;;;19.50;17.80;;;22.30;1.00;;;;;;5019906;28;21149;-80
2021/09/10 07:56:39;;;;;;;22.80;19.30;;;22.50;1.00;;;;;;5018238;28;21263;-80
2021/09/10 07:59:05;;;;;;;21.77;19.50;;;22.70;1.00;;;;;;5020100;28;20424;-80
2021/09/10 08:01:34;;;;;;;19.40;17.70;;;22.80;1.00;;;;;;5020024;28;20446;-79
2021/09/10 08:04:02;;;;;;;19.67;17.77;;;22.90;1.00;;;;;;5018324;28;21230;-79
2021/09/10 08:06:28;;;;;;;16.53;14.97;;;23.00;1.00;;;;;;5016607;28;20462;-81
2021/09/10 08:08:55;;;;;;;20.57;17.77;;;23.00;1.00;;;;;;5017194;28;21082;-79
2021/09/10 08:11:22;;;;;;;17.93;16.13;;;23.10;1.00;;;;;;5014942;28;20457;-79
2021/09/10 08:13:49;;;;;;;19.40;17.60;;;23.00;1.00;;;;;;5023323;28;20545;-80
2021/09/10 08:16:15;;;;;;;17.43;15.93;;;23.00;1.00;;;;;;5014773;28;20450;-79
2021/09/10 08:18:43;;;;;;;18.47;16.00;;;23.20;1.00;;;;;;5020346;28;20455;-80
2021/09/10 08:21:10;;;;;;;19.33;17.33;;;23.30;1.00;;;;;;5013864;28;20461;-79
2021/09/10 08:23:37;;;;;;;19.00;17.20;;;23.50;1.00;;;;;;5019563;28;20462;-80
2021/09/10 08:26:04;;;;;;;15.93;14.53;;;23.60;1.00;;;;;;5015201;28;20453;-80
2021/09/10 08:28:30;;;;;;;17.83;15.93;;;23.80;1.00;;;;;;5018188;28;20461;-79
2021/09/10 08:30:57;;;;;;;19.40;17.50;;;23.90;1.00;;;;;;5026865;28;20462;-78
2021/09/10 08:33:24;;;;;;;17.10;15.60;;;24.10;1.00;;;;;;5017201;28;20705;-79
2021/09/10 08:35:52;;;;;;;16.10;14.60;;;24.20;1.00;;;;;;5022976;28;20461;-80
2021/09/10 08:38:18;;;;;;;15.40;13.97;;;24.30;1.00;;;;;;5019410;28;20454;-78
2021/09/10 08:40:47;;;;;;;15.40;14.00;;;24.30;1.00;;;;;;5024616;28;21174;-81
2021/09/10 08:43:14;;;;;;;16.27;14.67;;;24.40;1.00;;;;;;5021488;28;20447;-80
2021/09/10 08:45:41;;;;;;;16.20;14.43;;;24.50;1.00;;;;;;5022154;28;20569;-80
2021/09/10 08:48:09;;;;;;;16.37;14.73;;;24.70;1.00;;;;;;5023182;28;20714;-79
2021/09/10 08:50:36;;;;;;;14.13;12.93;;;24.80;1.00;;;;;;5021826;28;20598;-80
2021/09/10 08:53:04;;;;;;;15.77;13.63;;;24.90;1.00;;;;;;5019138;28;20430;-80
2021/09/10 08:55:30;;;;;;;13.33;12.13;;;25.00;1.00;;;;;;5024947;28;21295;-80
2021/09/10 08:57:57;;;;;;;16.83;13.70;;;25.10;1.00;;;;;;5019825;28;20454;-79
2021/09/10 09:00:28;;;;;;;12.83;11.37;;;25.10;1.00;;;;;;5021442;28;22176;-79
2021/09/10 09:02:59;;;;;;;12.93;11.70;;;25.30;1.00;;;;;;5023076;28;20444;-79
2021/09/10 09:05:27;;;;;;;15.17;13.23;;;25.40;1.00;;;;;;5019422;28;20950;-80
2021/09/10 09:08:06;;;;;;;12.70;11.50;;;25.60;1.00;;;;;;5020064;28;20508;-81
2021/09/10 09:10:51;;;;;;;13.03;11.83;;;25.70;1.00;;;;;;4994630;28;20567;-81
2021/09/10 09:13:19;;;;;;;12.57;11.53;;;25.90;1.00;;;;;;5018762;28;20479;-80
2021/09/10 09:15:46;;;;;;;11.67;10.67;;;26.10;1.00;;;;;;5027407;28;20429;-82
2021/09/10 09:18:13;;;;;;;11.70;10.60;;;26.50;1.00;;;;;;5022176;28;21437;-80
2021/09/10 09:20:46;;;;;;;12.00;10.80;;;27.20;1.00;;;;;;5022928;28;20471;-80
2021/09/10 09:23:15;;;;;;;11.50;10.30;;;28.50;1.00;;;;;;5017836;28;20942;-80
2021/09/10 09:25:44;;;;;;;12.00;10.90;;;29.90;1.00;;;;;;5019499;28;20464;-80
2021/09/10 09:28:20;;;;;;;12.23;11.00;;;31.20;1.00;;;;;;5003580;28;20456;-80
2021/09/10 09:30:50;;;;;;;13.47;12.27;;;32.50;1.00;;;;;;5021817;28;20506;-81
2021/09/10 09:33:18;;;;;;;10.80;9.83;;;33.50;1.00;;;;;;5019855;28;20889;-80
2021/09/10 09:35:45;;;;;;;11.30;10.10;;;34.30;1.00;;;;;;5016064;28;20500;-81
2021/09/10 09:38:16;;;;;;;11.87;9.63;;;34.90;1.00;;;;;;5013798;28;20476;-83
2021/09/10 09:40:43;;;;;;;11.50;10.37;;;35.20;1.00;;;;;;5020729;28;22080;-80
2021/09/10 09:43:16;;;;;;;11.00;9.33;;;35.50;1.00;;;;;;5020305;28;21570;-79
2021/09/10 09:45:45;;;;;;;12.07;11.00;;;35.80;1.00;;;;;;5021514;28;20970;-81
2021/09/10 09:48:13;;;;;;;10.80;9.80;;;36.30;1.00;;;;;;5018207;28;20599;-80
2021/09/10 09:50:40;;;;;;;9.60;8.70;;;36.50;1.00;;;;;;5022680;28;20482;-82
2021/09/10 09:53:07;;;;;;;9.27;8.47;;;36.90;1.00;;;;;;5020166;28;21482;-78
2021/09/10 09:55:35;;;;;;;8.93;8.13;;;37.30;1.00;;;;;;5021736;28;21209;-79
2021/09/10 09:58:05;;;;;;;9.80;8.90;;;37.70;1.00;;;;;;5017622;28;20463;-79
2021/09/10 10:00:33;;;;;;;9.20;8.40;;;37.40;1.00;;;;;;5020762;28;20468;-79
2021/09/10 10:03:01;;;;;;;10.13;9.13;;;37.30;1.00;;;;;;5027981;28;20423;-81
2021/09/10 10:05:28;;;;;;;9.67;8.87;;;37.70;1.00;;;;;;5029298;28;20488;-79
2021/09/10 10:08:00;;;;;;;11.10;10.10;;;37.90;1.00;;;;;;5009426;28;20449;-80
2021/09/10 10:10:33;;;;;;;9.47;8.57;;;38.30;1.00;;;;;;5002891;28;21201;-80
2021/09/10 10:13:04;;;;;;;9.40;8.70;;;39.10;1.00;;;;;;5002646;28;20591;-80
2021/09/10 10:15:32;;;;;;;10.57;9.30;;;39.30;1.00;;;;;;5020477;28;20914;-81
2021/09/10 10:17:59;;;;;;;9.77;8.53;;;39.40;1.00;;;;;;5019572;28;21599;-81
2021/09/10 10:20:49;;;;;;;9.33;8.43;;;39.20;1.00;;;;;;5003680;28;24136;-82
2021/09/10 10:23:57;;;;;;;10.43;9.50;;;39.20;1.00;;;;;;5018311;28;20444;-80
2021/09/10 10:26:36;;;;;;;9.87;8.83;;;39.40;1.00;;;;;;5025883;28;20528;-80
2021/09/10 10:29:10;;;;;;;10.80;9.90;;;39.40;1.00;;;;;;5009848;28;20461;-80
2021/09/10 10:32:00;;;;;;;12.27;9.93;;;39.60;1.00;;;;;;5021465;28;20552;-81
2021/09/10 10:34:28;;;;;;;9.50;8.70;;;39.80;1.00;;;;;;5032513;28;20460;-81
2021/09/10 10:36:54;;;;;;;9.17;8.37;;;39.60;1.00;;;;;;5028809;28;20460;-81
2021/09/10 10:39:28;;;;;;;10.83;9.63;;;39.60;1.00;;;;;;5021820;28;20496;-81
2021/09/10 10:41:57;;;;;;;8.70;8.10;;;39.60;1.00;;;;;;5029311;28;20472;-79
2021/09/10 10:44:52;;;;;;;10.00;8.60;;;39.90;1.00;;;;;;5030718;28;20561;-80
2021/09/10 10:47:32;;;;;;;10.00;8.73;;;39.60;1.00;;;;;;5029757;28;20409;-80
2021/09/10 10:50:01;;;;;;;9.53;8.73;;;39.90;1.00;;;;;;5026463;28;20422;-80
2021/09/10 10:52:37;;;;;;;10.07;9.13;;;40.40;1.00;;;;;;5021500;28;20491;-79
2021/09/10 10:55:23;;;;;;;9.93;9.10;;;41.00;1.00;;;;;;5023398;28;20481;-81
2021/09/10 10:57:51;;;;;;;10.10;9.17;;;41.30;1.00;;;;;;5029990;28;20470;-83
2021/09/10 11:00:49;;;;;;;10.73;9.73;;;40.70;1.00;;;;;;5039222;28;20420;-79
2021/09/10 11:03:36;;;;;;;9.60;8.80;;;40.10;1.00;;;;;;5021486;28;20694;-79
2021/09/10 11:06:30;;;;;;;10.60;9.70;;;38.50;1.00;;;;;;5033219;28;20449;-79
2021/09/10 11:08:57;;;;;;;9.03;8.33;;;38.30;1.00;;;;;;5037303;28;20464;-81
2021/09/10 11:11:28;;;;;;;9.10;8.30;;;38.40;1.00;;;;;;5040920;28;20539;-82
2021/09/10 11:13:56;;;;;;;9.67;8.67;;;38.50;1.00;;;;;;5039998;28;20448;-82
2021/09/10 11:16:28;;;;;;;9.90;9.10;;;39.30;1.00;;;;;;5032277;28;20527;-83
2021/09/10 11:18:57;;;;;;;9.90;9.00;;;40.20;1.00;;;;;;5038810;28;20442;-84
2021/09/10 11:21:31;;;;;;;9.53;8.73;;;40.40;1.00;;;;;;5033097;28;20524;-83
2021/09/10 11:24:11;;;;;;;10.40;9.50;;;40.60;1.00;;;;;;5014725;28;20520;-82
2021/09/10 11:26:40;;;;;;;10.43;9.30;;;40.80;1.00;;;;;;5023488;28;20467;-82
2021/09/10 11:29:12;;;;;;;7.67;7.10;;;41.10;1.00;;;;;;5028860;28;20522;-82
2021/09/10 11:31:39;;;;;;;12.37;11.37;;;41.30;1.00;;;;;;5024316;28;20469;-81
2021/09/10 11:34:08;;;;;;;9.30;8.53;;;41.60;1.00;;;;;;5023625;28;21044;-80
2021/09/10 11:36:35;;;;;;;9.53;8.57;;;42.20;1.00;;;;;;5037377;28;20436;-81
2021/09/10 11:39:08;;;;;;;8.33;7.73;;;42.60;1.00;;;;;;5035465;28;20903;-82
2021/09/10 11:41:36;;;;;;;7.47;6.97;;;42.60;1.00;;;;;;5034066;28;20558;-82
2021/09/10 11:44:08;;;;;;;8.20;7.50;;;42.70;1.00;;;;;;5039733;28;20562;-81
2021/09/10 11:46:36;;;;;;;9.40;8.60;;;42.10;1.00;;;;;;5049000;28;21042;-81
2021/09/10 11:49:03;;;;;;;10.43;9.03;;;42.00;1.00;;;;;;5027914;28;20569;-80
2021/09/10 11:51:44;;;;;;;8.60;7.83;;;42.30;1.00;;;;;;5025421;28;20503;-82
2021/09/10 11:54:13;;;;;;;8.60;7.90;;;42.70;1.00;;;;;;5009925;28;22028;-82
2021/09/10 11:56:40;;;;;;;8.13;7.50;;;43.10;1.00;;;;;;5021841;28;20655;-80
2021/09/10 11:59:22;;;;;;;7.67;7.00;;;43.00;1.00;;;;;;5025780;28;20445;-82
2021/09/10 12:01:49;;;;;;;9.90;9.07;;;41.90;1.00;;;;;;5025244;28;20654;-80
2021/09/10 12:04:27;;;;;;;8.43;7.83;;;40.00;1.00;;;;;;5026525;28;20446;-82
2021/09/10 12:06:58;;;;;;;8.90;8.17;;;38.20;1.00;;;;;;5027725;28;20440;-84
2021/09/10 12:09:27;;;;;;;9.10;8.27;;;36.70;1.00;;;;;;5027870;28;22005;-85
2021/09/10 12:12:15;;;;;;;8.90;8.13;;;35.50;1.00;;;;;;5024846;28;20409;-80
2021/09/10 12:14:43;;;;;;;8.37;7.67;;;34.50;1.00;;;;;;5025840;28;20461;-80
2021/09/10 12:17:14;;;;;;;8.83;8.00;;;34.60;1.00;;;;;;5031321;28;21186;-81
2021/09/10 12:19:55;;;;;;;8.70;8.00;;;34.40;1.00;;;;;;5028553;28;20447;-81
2021/09/10 12:22:33;;;;;;;9.50;8.70;;;33.70;1.00;;;;;;5028123;28;20547;-83
2021/09/10 12:25:34;;;;;;;11.30;10.30;;;33.40;1.00;;;;;;5024651;28;20463;-80
2021/09/10 12:28:28;;;;;;;10.10;9.10;;;33.00;1.00;;;;;;5030225;28;20448;-81
2021/09/10 12:31:05;;;;;;;9.83;8.83;;;32.50;1.00;;;;;;5026494;28;20515;-81
2021/09/10 12:33:33;;;;;;;10.50;9.47;;;32.60;1.00;;;;;;5032021;28;21423;-80
2021/09/10 12:36:03;;;;;;;14.93;13.43;;;33.70;1.00;;;;;;5027426;28;20476;-80
2021/09/10 12:38:33;;;;;;;9.70;7.97;;;34.60;1.00;;;;;;5025238;28;20448;-81
2021/09/10 12:41:03;;;;;;;9.73;8.93;;;35.50;1.00;;;;;;5024602;28;20492;-83
2021/09/10 12:43:33;;;;;;;11.30;10.30;;;35.40;1.00;;;;;;5025024;28;20448;-81
2021/09/10 12:46:02;;;;;;;10.90;9.90;;;34.50;1.00;;;;;;5027740;28;20485;-82
2021/09/10 12:48:29;;;;;;;11.03;10.03;;;33.30;1.00;;;;;;5027251;28;20424;-81